Main page
METAR-TAF:

METAR-TAF

Airports :

Dresden Airport

Dresden, Germany

latitude: 51-08N, longitude: 013-45E, elevation: 230 m

Current weather observation

The report was made 17 minutes ago, at 09:50 UTC
Wind 7 kt from the West/Southwest, varying between South/Southwest and West/Northwest
Temperature 4°C
Humidity 41%
Pressure 1022 hPa
Visibility 10 km or more
no clouds below 1500 m and no cumulonimbus

METAR: EDDC 010950Z 24007KT 210V290 CAVOK 04/M08 Q1022 NOSIG

Time: 12:07 (10:07 UTC)

Forecast

The report was made 5 hours and 7 minutes ago, at 05:00 UTC
Forecast valid from 01 at 06 UTC to 02 at 06 UTC
Wind 5 kt from the South/Southwest
Visibility 10 km or more
no clouds below 1500 m and no cumulonimbus
Becoming
from 01 at 07 UTC to 01 at 10 UTC
Wind 10 kt from the West
Becoming
from 01 at 16 UTC to 01 at 19 UTC
Wind 4 kt from the Southwest

TAF: EDDC 010500Z 0106/0206 20005KT CAVOK BECMG 0107/0110 26010KT BECMG 0116/0119 23004KT

Weather observations and forecasts of more than 4000 airports (METAR and TAF reports).

The available stations are represented by yellow and red dots on the map.

Hover mouse over dot to see the name of the station.

Then click to see weather observations and forecasts.

To change the map : click on the green buttons with a black cross to zoom in, on the green button with a dash to zoom out, or on the green arrows for adjacent maps.


METAR-TAF: